Portada
METAR-TAF:

METAR-TAF

Aeroports :

Trat, Tailàndia

latitud: 12-16-28N, longitud: 102-19-08E, altitud: 32 m

Observació

L'informe es va fer fa 36 minuts, a les 02:00 UTC
Vent 10 kt del Est
Temperatura 29°C
Humitat 58%
Pressió 1012 hPa
Visibilitat: 7000 m

METAR: VTBO 150200Z 08010KT 7000 NSC 29/20 Q1012

Hora: 09:36 (02:36 UTC)

Pronòstic

L'informe es va fer fa 3 hores i 36 minuts, a les 23:00 UTC
Pronòstic vàlid del 15 a les 00 UTC al 15 a les 24 UTC
Vent 5 kt del Nord/Nord-Est
Visibilitat: 5000 m
Escasses núvols a una alçada de 2000 ft
boirina
Evolucionant progressivament
l' 15 a les 01 UTC al 15 a les 03 UTC
Visibilitat: 8000 m

TAF: VTBO 142300Z 1500/1524 02005KT 5000 BR FEW020 BECMG 1501/1503 8000 NSW

Observacions i pronòstics meteorològics de més de 4000 aeroports (METAR i TAF).

Les estacions disponibles són els punts grocs i vermells al mapa.

Posi el ratolí al punt desitjat per veure el nom de l'estació.

Feu clic per veure les observacions i els pronòstics meteorològics.

Per canviar el mapa: feu clic els botons verds amb una creu de color negre per apropar; al botó verd amb un guió per allunyar la imatge; o en les fletxes verdes per a mapes adjacents.


METAR-TAF: